sensor_id;sensor_type;location;lat;lon;timestamp;P1;P2;P0
49686;PMS5003;36064;38.180;-122.272;2022-11-15T00:00:00;10.2;10.0;
49686;PMS5003;36064;38.180;-122.272;2022-11-15T00:05:00;8.8;8.4;
49686;PMS5003;36064;38.180;-122.272;2022-11-15T00:10:00;8.2;7.6;
49686;PMS5003;36064;38.180;-122.272;2022-11-15T00:15:00;9.8;8.8;
49686;PMS5003;36064;38.180;-122.272;2022-11-15T00:20:01;9.6;9.0;
49686;PMS5003;36064;38.180;-122.272;2022-11-15T00:25:00;7.2;7.2;
49686;PMS5003;36064;38.180;-122.272;2022-11-15T00:30:01;8.6;7.8;
49686;PMS5003;36064;38.180;-122.272;2022-11-15T00:35:00;9.4;8.8;
49686;PMS5003;36064;38.180;-122.272;2022-11-15T00:40:00;8.0;8.0;
49686;PMS5003;36064;38.180;-122.272;2022-11-15T00:45:00;11.8;9.4;
49686;PMS5003;36064;38.180;-122.272;2022-11-15T00:50:01;13.2;12.2;
49686;PMS5003;36064;38.180;-122.272;2022-11-15T00:55:00;11.0;10.6;
49686;PMS5003;36064;38.180;-122.272;2022-11-15T01:00:00;13.8;11.4;
49686;PMS5003;36064;38.180;-122.272;2022-11-15T01:05:00;10.0;9.2;
49686;PMS5003;36064;38.180;-122.272;2022-11-15T01:10:00;10.0;9.2;
49686;PMS5003;36064;38.180;-122.272;2022-11-15T01:15:00;9.8;10.8;
49686;PMS5003;36064;38.180;-122.272;2022-11-15T01:20:00;9.8;7.6;
49686;PMS5003;36064;38.180;-122.272;2022-11-15T01:25:00;8.6;8.4;
49686;PMS5003;36064;38.180;-122.272;2022-11-15T01:30:00;11.0;11.0;
49686;PMS5003;36064;38.180;-122.272;2022-11-15T01:35:00;10.4;9.8;
49686;PMS5003;36064;38.180;-122.272;2022-11-15T01:40:00;9.8;9.4;
49686;PMS5003;36064;38.180;-122.272;2022-11-15T01:45:00;10.4;9.8;
49686;PMS5003;36064;38.180;-122.272;2022-11-15T01:50:02;10.72;10.72;
49686;PMS5003;36064;38.180;-122.272;2022-11-15T01:55:02;10.4;9.6;
49686;PMS5003;36064;38.180;-122.272;2022-11-15T02:00:01;15.4;15.2;
49686;PMS5003;36064;38.180;-122.272;2022-11-15T02:05:00;13.6;12.6;
49686;PMS5003;36064;38.180;-122.272;2022-11-15T02:10:02;13.0;12.2;
49686;PMS5003;36064;38.180;-122.272;2022-11-15T02:15:00;13.8;12.2;
49686;PMS5003;36064;38.180;-122.272;2022-11-15T02:25:03;12.0;10.6;
49686;PMS5003;36064;38.180;-122.272;2022-11-15T02:35:02;11.4;11.4;
49686;PMS5003;36064;38.180;-122.272;2022-11-15T02:40:02;11.8;11.0;
49686;PMS5003;36064;38.180;-122.272;2022-11-15T02:45:01;12.16;10.91;
49686;PMS5003;36064;38.180;-122.272;2022-11-15T02:50:01;12.6;11.0;
49686;PMS5003;36064;38.180;-122.272;2022-11-15T02:55:03;16.4;15.2;
49686;PMS5003;36064;38.180;-122.272;2022-11-15T03:00:03;14.0;12.4;
49686;PMS5003;36064;38.180;-122.272;2022-11-15T03:05:02;11.6;11.2;
49686;PMS5003;36064;38.180;-122.272;2022-11-15T03:10:02;12.4;11.6;
49686;PMS5003;36064;38.180;-122.272;2022-11-15T03:15:01;13.6;12.8;
49686;PMS5003;36064;38.180;-122.272;2022-11-15T03:20:01;12.2;11.8;
49686;PMS5003;36064;38.180;-122.272;2022-11-15T03:25:02;12.0;11.6;
49686;PMS5003;36064;38.180;-122.272;2022-11-15T03:30:02;11.0;11.0;
49686;PMS5003;36064;38.180;-122.272;2022-11-15T03:35:01;10.6;10.6;
49686;PMS5003;36064;38.180;-122.272;2022-11-15T03:40:00;11.2;11.4;
49686;PMS5003;36064;38.180;-122.272;2022-11-15T03:45:02;13.2;12.59;
49686;PMS5003;36064;38.180;-122.272;2022-11-15T03:50:03;18.0;15.4;
49686;PMS5003;36064;38.180;-122.272;2022-11-15T03:55:01;16.8;15.6;
49686;PMS5003;36064;38.180;-122.272;2022-11-15T04:00:00;12.8;14.6;
49686;PMS5003;36064;38.180;-122.272;2022-11-15T04:05:01;13.8;13.2;
49686;PMS5003;36064;38.180;-122.272;2022-11-15T04:10:00;15.4;14.8;
49686;PMS5003;36064;38.180;-122.272;2022-11-15T04:15:01;15.4;13.4;
49686;PMS5003;36064;38.180;-122.272;2022-11-15T04:20:01;15.8;14.6;
49686;PMS5003;36064;38.180;-122.272;2022-11-15T04:25:01;12.8;11.6;
49686;PMS5003;36064;38.180;-122.272;2022-11-15T04:30:00;12.4;11.0;
49686;PMS5003;36064;38.180;-122.272;2022-11-15T04:35:00;12.0;12.2;
49686;PMS5003;36064;38.180;-122.272;2022-11-15T04:40:00;10.0;9.2;
49686;PMS5003;36064;38.180;-122.272;2022-11-15T04:45:00;12.2;11.2;
49686;PMS5003;36064;38.180;-122.272;2022-11-15T04:50:00;11.81;10.81;
49686;PMS5003;36064;38.180;-122.272;2022-11-15T04:55:00;13.0;12.2;
49686;PMS5003;36064;38.180;-122.272;2022-11-15T05:00:00;10.6;10.4;
49686;PMS5003;36064;38.180;-122.272;2022-11-15T05:05:04;13.6;13.0;
49686;PMS5003;36064;38.180;-122.272;2022-11-15T05:10:00;13.0;12.4;
49686;PMS5003;36064;38.180;-122.272;2022-11-15T05:15:00;12.4;10.4;
49686;PMS5003;36064;38.180;-122.272;2022-11-15T05:20:00;10.6;10.2;
49686;PMS5003;36064;38.180;-122.272;2022-11-15T05:25:00;11.2;9.6;
49686;PMS5003;36064;38.180;-122.272;2022-11-15T05:30:00;10.2;8.8;
49686;PMS5003;36064;38.180;-122.272;2022-11-15T05:35:00;9.6;8.6;
49686;PMS5003;36064;38.180;-122.272;2022-11-15T05:40:00;11.0;9.8;
49686;PMS5003;36064;38.180;-122.272;2022-11-15T05:45:00;11.0;9.4;
49686;PMS5003;36064;38.180;-122.272;2022-11-15T05:50:00;10.8;8.8;
49686;PMS5003;36064;38.180;-122.272;2022-11-15T05:55:00;11.6;11.0;
49686;PMS5003;36064;38.180;-122.272;2022-11-15T06:00:00;10.2;9.8;
49686;PMS5003;36064;38.180;-122.272;2022-11-15T06:05:00;10.4;9.8;
49686;PMS5003;36064;38.180;-122.272;2022-11-15T06:10:00;16.4;15.6;
49686;PMS5003;36064;38.180;-122.272;2022-11-15T06:15:00;12.6;12.6;
49686;PMS5003;36064;38.180;-122.272;2022-11-15T06:20:00;13.0;11.8;
49686;PMS5003;36064;38.180;-122.272;2022-11-15T06:25:00;11.8;10.6;
49686;PMS5003;36064;38.180;-122.272;2022-11-15T06:30:00;13.0;12.4;
49686;PMS5003;36064;38.180;-122.272;2022-11-15T06:35:01;15.2;13.2;
49686;PMS5003;36064;38.180;-122.272;2022-11-15T06:40:01;14.8;12.6;
49686;PMS5003;36064;38.180;-122.272;2022-11-15T06:45:00;15.6;15.6;
49686;PMS5003;36064;38.180;-122.272;2022-11-15T06:50:00;17.0;15.4;
49686;PMS5003;36064;38.180;-122.272;2022-11-15T06:55:00;18.2;17.4;
49686;PMS5003;36064;38.180;-122.272;2022-11-15T07:00:00;17.0;16.6;
49686;PMS5003;36064;38.180;-122.272;2022-11-15T07:05:00;17.6;17.2;
49686;PMS5003;36064;38.180;-122.272;2022-11-15T07:10:00;12.8;12.4;
49686;PMS5003;36064;38.180;-122.272;2022-11-15T07:15:00;10.8;10.4;
49686;PMS5003;36064;38.180;-122.272;2022-11-15T07:20:00;9.8;9.4;
49686;PMS5003;36064;38.180;-122.272;2022-11-15T07:25:00;9.8;9.8;
49686;PMS5003;36064;38.180;-122.272;2022-11-15T07:30:00;15.6;15.2;
49686;PMS5003;36064;38.180;-122.272;2022-11-15T07:35:00;12.8;11.2;
49686;PMS5003;36064;38.180;-122.272;2022-11-15T07:40:00;15.0;13.4;
49686;PMS5003;36064;38.180;-122.272;2022-11-15T07:45:00;14.2;12.4;
49686;PMS5003;36064;38.180;-122.272;2022-11-15T07:50:00;10.0;9.6;
49686;PMS5003;36064;38.180;-122.272;2022-11-15T07:55:00;11.8;11.0;
49686;PMS5003;36064;38.180;-122.272;2022-11-15T08:00:00;11.0;10.6;
49686;PMS5003;36064;38.180;-122.272;2022-11-15T08:05:00;9.8;9.8;
49686;PMS5003;36064;38.180;-122.272;2022-11-15T08:10:00;12.2;11.0;
49686;PMS5003;36064;38.180;-122.272;2022-11-15T08:15:00;8.6;8.6;
49686;PMS5003;36064;38.180;-122.272;2022-11-15T08:20:00;10.0;9.2;
49686;PMS5003;36064;38.180;-122.272;2022-11-15T08:25:00;10.2;9.4;
49686;PMS5003;36064;38.180;-122.272;2022-11-15T08:30:00;11.6;10.4;
49686;PMS5003;36064;38.180;-122.272;2022-11-15T08:35:00;10.36;8.78;
49686;PMS5003;36064;38.180;-122.272;2022-11-15T08:40:00;11.36;10.4;
49686;PMS5003;36064;38.180;-122.272;2022-11-15T08:45:00;10.6;10.2;
49686;PMS5003;36064;38.180;-122.272;2022-11-15T08:50:00;11.1;11.1;
49686;PMS5003;36064;38.180;-122.272;2022-11-15T08:55:00;11.6;10.8;
49686;PMS5003;36064;38.180;-122.272;2022-11-15T09:00:00;10.2;10.2;
49686;PMS5003;36064;38.180;-122.272;2022-11-15T09:05:00;11.8;10.6;
49686;PMS5003;36064;38.180;-122.272;2022-11-15T09:10:00;15.4;15.4;
49686;PMS5003;36064;38.180;-122.272;2022-11-15T09:15:01;18.2;16.2;
49686;PMS5003;36064;38.180;-122.272;2022-11-15T09:20:00;21.6;18.4;
49686;PMS5003;36064;38.180;-122.272;2022-11-15T09:25:00;18.0;16.4;
49686;PMS5003;36064;38.180;-122.272;2022-11-15T09:30:00;22.0;19.6;
49686;PMS5003;36064;38.180;-122.272;2022-11-15T09:35:00;17.2;16.0;
49686;PMS5003;36064;38.180;-122.272;2022-11-15T09:40:00;14.4;13.4;
49686;PMS5003;36064;38.180;-122.272;2022-11-15T09:45:05;12.6;12.0;
49686;PMS5003;36064;38.180;-122.272;2022-11-15T09:50:01;12.6;10.4;
49686;PMS5003;36064;38.180;-122.272;2022-11-15T09:55:00;12.8;10.6;
49686;PMS5003;36064;38.180;-122.272;2022-11-15T10:00:04;13.6;11.6;
49686;PMS5003;36064;38.180;-122.272;2022-11-15T10:05:00;13.0;11.6;
49686;PMS5003;36064;38.180;-122.272;2022-11-15T10:10:02;9.6;9.6;
49686;PMS5003;36064;38.180;-122.272;2022-11-15T10:15:01;9.2;8.4;
49686;PMS5003;36064;38.180;-122.272;2022-11-15T10:20:05;9.0;7.2;
49686;PMS5003;36064;38.180;-122.272;2022-11-15T10:25:12;7.6;6.8;
49686;PMS5003;36064;38.180;-122.272;2022-11-15T10:30:00;9.6;8.0;
49686;PMS5003;36064;38.180;-122.272;2022-11-15T10:35:01;8.4;7.8;
49686;PMS5003;36064;38.180;-122.272;2022-11-15T10:40:04;8.6;9.0;
49686;PMS5003;36064;38.180;-122.272;2022-11-15T10:45:00;9.6;9.0;
49686;PMS5003;36064;38.180;-122.272;2022-11-15T10:50:02;11.4;9.8;
49686;PMS5003;36064;38.180;-122.272;2022-11-15T10:55:02;11.0;10.4;
49686;PMS5003;36064;38.180;-122.272;2022-11-15T11:00:02;12.2;11.4;
49686;PMS5003;36064;38.180;-122.272;2022-11-15T11:05:01;12.2;11.4;
49686;PMS5003;36064;38.180;-122.272;2022-11-15T11:10:02;9.2;8.8;
49686;PMS5003;36064;38.180;-122.272;2022-11-15T11:15:01;9.6;9.6;
49686;PMS5003;36064;38.180;-122.272;2022-11-15T11:20:01;10.6;9.8;
49686;PMS5003;36064;38.180;-122.272;2022-11-15T11:30:04;9.8;9.8;
49686;PMS5003;36064;38.180;-122.272;2022-11-15T11:35:02;11.8;11.0;
49686;PMS5003;36064;38.180;-122.272;2022-11-15T11:40:06;10.2;8.8;
49686;PMS5003;36064;38.180;-122.272;2022-11-15T11:45:02;13.0;12.2;
49686;PMS5003;36064;38.180;-122.272;2022-11-15T11:50:02;7.4;8.0;
49686;PMS5003;36064;38.180;-122.272;2022-11-15T11:55:02;8.77;8.37;
49686;PMS5003;36064;38.180;-122.272;2022-11-15T12:00:02;11.2;9.2;
49686;PMS5003;36064;38.180;-122.272;2022-11-15T12:05:03;11.6;10.8;
49686;PMS5003;36064;38.180;-122.272;2022-11-15T12:10:03;10.2;9.6;
49686;PMS5003;36064;38.180;-122.272;2022-11-15T12:15:02;12.4;11.2;
49686;PMS5003;36064;38.180;-122.272;2022-11-15T12:20:02;9.6;8.4;
49686;PMS5003;36064;38.180;-122.272;2022-11-15T12:25:01;10.98;9.99;
49686;PMS5003;36064;38.180;-122.272;2022-11-15T12:30:01;11.6;10.8;
49686;PMS5003;36064;38.180;-122.272;2022-11-15T12:35:01;12.38;10.97;
49686;PMS5003;36064;38.180;-122.272;2022-11-15T12:40:05;15.2;13.6;
49686;PMS5003;36064;38.180;-122.272;2022-11-15T12:45:00;14.8;14.4;
49686;PMS5003;36064;38.180;-122.272;2022-11-15T12:50:00;16.4;15.4;
49686;PMS5003;36064;38.180;-122.272;2022-11-15T12:55:01;18.8;15.4;
49686;PMS5003;36064;38.180;-122.272;2022-11-15T13:00:00;19.2;16.8;
49686;PMS5003;36064;38.180;-122.272;2022-11-15T13:10:00;20.59;19.39;
49686;PMS5003;36064;38.180;-122.272;2022-11-15T13:15:00;21.18;20.38;
49686;PMS5003;36064;38.180;-122.272;2022-11-15T13:20:07;20.4;18.0;
49686;PMS5003;36064;38.180;-122.272;2022-11-15T13:25:00;18.8;17.4;
49686;PMS5003;36064;38.180;-122.272;2022-11-15T13:30:00;20.6;17.6;
49686;PMS5003;36064;38.180;-122.272;2022-11-15T13:35:01;23.6;20.6;
49686;PMS5003;36064;38.180;-122.272;2022-11-15T13:45:01;21.8;18.4;
49686;PMS5003;36064;38.180;-122.272;2022-11-15T13:50:00;19.6;17.8;
49686;PMS5003;36064;38.180;-122.272;2022-11-15T13:55:01;20.4;20.0;
49686;PMS5003;36064;38.180;-122.272;2022-11-15T14:00:01;21.2;19.8;
49686;PMS5003;36064;38.180;-122.272;2022-11-15T14:05:02;21.2;18.4;
49686;PMS5003;36064;38.180;-122.272;2022-11-15T14:15:01;17.4;15.6;
49686;PMS5003;36064;38.180;-122.272;2022-11-15T14:20:01;19.6;19.2;
49686;PMS5003;36064;38.180;-122.272;2022-11-15T14:25:05;13.4;13.0;
49686;PMS5003;36064;38.180;-122.272;2022-11-15T14:30:00;18.8;17.2;
49686;PMS5003;36064;38.180;-122.272;2022-11-15T14:35:01;21.2;18.0;
49686;PMS5003;36064;38.180;-122.272;2022-11-15T14:40:00;20.0;19.6;
49686;PMS5003;36064;38.180;-122.272;2022-11-15T14:45:00;17.4;14.2;
49686;PMS5003;36064;38.180;-122.272;2022-11-15T14:50:01;18.4;17.2;
49686;PMS5003;36064;38.180;-122.272;2022-11-15T14:55:00;20.2;19.8;
49686;PMS5003;36064;38.180;-122.272;2022-11-15T15:00:00;22.0;21.0;
49686;PMS5003;36064;38.180;-122.272;2022-11-15T15:05:00;16.8;16.4;
49686;PMS5003;36064;38.180;-122.272;2022-11-15T15:10:00;16.8;15.0;
49686;PMS5003;36064;38.180;-122.272;2022-11-15T15:15:00;15.4;13.8;
49686;PMS5003;36064;38.180;-122.272;2022-11-15T15:20:01;22.6;22.2;
49686;PMS5003;36064;38.180;-122.272;2022-11-15T15:25:01;19.6;18.8;
49686;PMS5003;36064;38.180;-122.272;2022-11-15T15:30:00;18.4;16.4;
49686;PMS5003;36064;38.180;-122.272;2022-11-15T15:35:01;17.2;17.0;
49686;PMS5003;36064;38.180;-122.272;2022-11-15T15:40:01;20.0;17.8;
49686;PMS5003;36064;38.180;-122.272;2022-11-15T15:45:01;17.6;17.2;
49686;PMS5003;36064;38.180;-122.272;2022-11-15T15:50:01;16.6;15.4;
49686;PMS5003;36064;38.180;-122.272;2022-11-15T15:55:01;14.4;13.8;
49686;PMS5003;36064;38.180;-122.272;2022-11-15T16:00:01;20.4;18.4;
49686;PMS5003;36064;38.180;-122.272;2022-11-15T16:05:01;22.6;20.4;
49686;PMS5003;36064;38.180;-122.272;2022-11-15T16:10:01;20.4;17.8;
49686;PMS5003;36064;38.180;-122.272;2022-11-15T16:15:01;24.0;22.2;
49686;PMS5003;36064;38.180;-122.272;2022-11-15T16:20:01;24.4;21.2;
49686;PMS5003;36064;38.180;-122.272;2022-11-15T16:25:00;21.2;19.0;
49686;PMS5003;36064;38.180;-122.272;2022-11-15T16:30:00;21.8;18.6;
49686;PMS5003;36064;38.180;-122.272;2022-11-15T16:35:01;18.8;17.2;
49686;PMS5003;36064;38.180;-122.272;2022-11-15T16:40:01;21.4;20.0;
49686;PMS5003;36064;38.180;-122.272;2022-11-15T16:45:00;19.6;17.41;
49686;PMS5003;36064;38.180;-122.272;2022-11-15T16:50:00;18.8;17.4;
49686;PMS5003;36064;38.180;-122.272;2022-11-15T16:55:00;19.2;18.8;
49686;PMS5003;36064;38.180;-122.272;2022-11-15T17:00:00;20.8;20.6;
49686;PMS5003;36064;38.180;-122.272;2022-11-15T17:05:00;18.8;17.2;
49686;PMS5003;36064;38.180;-122.272;2022-11-15T17:10:00;22.2;20.0;
49686;PMS5003;36064;38.180;-122.272;2022-11-15T17:15:00;18.91;18.29;
49686;PMS5003;36064;38.180;-122.272;2022-11-15T17:20:00;15.0;18.29;
49686;PMS5003;36064;38.180;-122.272;2022-11-15T17:25:00;13.6;12.6;
49686;PMS5003;36064;38.180;-122.272;2022-11-15T17:30:00;16.0;15.8;
49686;PMS5003;36064;38.180;-122.272;2022-11-15T17:35:00;12.2;11.8;
49686;PMS5003;36064;38.180;-122.272;2022-11-15T17:40:00;14.6;14.6;
49686;PMS5003;36064;38.180;-122.272;2022-11-15T17:45:00;20.8;19.8;
49686;PMS5003;36064;38.180;-122.272;2022-11-15T17:50:00;18.8;17.2;
49686;PMS5003;36064;38.180;-122.272;2022-11-15T17:55:00;17.2;15.4;
49686;PMS5003;36064;38.180;-122.272;2022-11-15T18:00:01;18.8;16.6;
49686;PMS5003;36064;38.180;-122.272;2022-11-15T18:05:00;17.4;16.0;
49686;PMS5003;36064;38.180;-122.272;2022-11-15T18:10:00;15.2;15.2;
49686;PMS5003;36064;38.180;-122.272;2022-11-15T18:15:00;14.6;13.8;
49686;PMS5003;36064;38.180;-122.272;2022-11-15T18:20:00;14.6;13.6;
49686;PMS5003;36064;38.180;-122.272;2022-11-15T18:25:00;12.4;12.2;
49686;PMS5003;36064;38.180;-122.272;2022-11-15T18:30:01;12.0;10.4;
49686;PMS5003;36064;38.180;-122.272;2022-11-15T18:35:02;9.2;8.4;
49686;PMS5003;36064;38.180;-122.272;2022-11-15T18:40:00;8.4;7.6;
49686;PMS5003;36064;38.180;-122.272;2022-11-15T18:45:00;7.8;7.8;
49686;PMS5003;36064;38.180;-122.272;2022-11-15T18:50:01;7.4;7.0;
49686;PMS5003;36064;38.180;-122.272;2022-11-15T18:55:00;11.0;9.8;
49686;PMS5003;36064;38.180;-122.272;2022-11-15T19:00:00;6.8;6.6;
49686;PMS5003;36064;38.180;-122.272;2022-11-15T19:05:00;6.0;5.8;
49686;PMS5003;36064;38.180;-122.272;2022-11-15T19:10:00;7.2;6.6;
49686;PMS5003;36064;38.180;-122.272;2022-11-15T19:15:07;7.6;9.4;
49686;PMS5003;36064;38.180;-122.272;2022-11-15T19:20:01;5.2;5.0;
49686;PMS5003;36064;38.180;-122.272;2022-11-15T19:25:00;6.0;5.0;
49686;PMS5003;36064;38.180;-122.272;2022-11-15T19:30:01;6.2;5.2;
49686;PMS5003;36064;38.180;-122.272;2022-11-15T19:35:00;6.6;6.2;
49686;PMS5003;36064;38.180;-122.272;2022-11-15T19:40:00;7.6;7.6;
49686;PMS5003;36064;38.180;-122.272;2022-11-15T19:45:00;6.4;6.4;
49686;PMS5003;36064;38.180;-122.272;2022-11-15T19:50:00;6.4;6.2;
49686;PMS5003;36064;38.180;-122.272;2022-11-15T19:55:00;6.0;5.4;
49686;PMS5003;36064;38.180;-122.272;2022-11-15T20:00:00;6.6;6.2;
49686;PMS5003;36064;38.180;-122.272;2022-11-15T20:05:01;5.2;5.2;
49686;PMS5003;36064;38.180;-122.272;2022-11-15T20:10:00;5.4;5.0;
49686;PMS5003;36064;38.180;-122.272;2022-11-15T20:15:00;4.6;5.4;
49686;PMS5003;36064;38.180;-122.272;2022-11-15T20:20:00;10.0;8.2;
49686;PMS5003;36064;38.180;-122.272;2022-11-15T20:25:01;7.4;6.2;
49686;PMS5003;36064;38.180;-122.272;2022-11-15T20:30:00;7.99;5.78;
49686;PMS5003;36064;38.180;-122.272;2022-11-15T20:35:00;6.6;5.8;
49686;PMS5003;36064;38.180;-122.272;2022-11-15T20:40:00;6.2;5.6;
49686;PMS5003;36064;38.180;-122.272;2022-11-15T20:45:00;5.4;5.4;
49686;PMS5003;36064;38.180;-122.272;2022-11-15T20:50:00;4.2;4.2;
49686;PMS5003;36064;38.180;-122.272;2022-11-15T20:55:00;4.6;4.6;
49686;PMS5003;36064;38.180;-122.272;2022-11-15T21:00:00;5.0;4.6;
49686;PMS5003;36064;38.180;-122.272;2022-11-15T21:05:00;4.4;4.4;
49686;PMS5003;36064;38.180;-122.272;2022-11-15T21:10:00;4.8;4.4;
49686;PMS5003;36064;38.180;-122.272;2022-11-15T21:15:00;4.0;3.6;
49686;PMS5003;36064;38.180;-122.272;2022-11-15T21:20:00;4.2;4.2;
49686;PMS5003;36064;38.180;-122.272;2022-11-15T21:25:00;3.26;3.26;
49686;PMS5003;36064;38.180;-122.272;2022-11-15T21:30:00;4.6;4.6;
49686;PMS5003;36064;38.180;-122.272;2022-11-15T21:35:01;4.8;4.4;
49686;PMS5003;36064;38.180;-122.272;2022-11-15T21:40:00;4.8;4.6;
49686;PMS5003;36064;38.180;-122.272;2022-11-15T21:45:00;3.2;3.2;
49686;PMS5003;36064;38.180;-122.272;2022-11-15T21:50:00;3.2;3.2;
49686;PMS5003;36064;38.180;-122.272;2022-11-15T21:55:00;4.6;4.4;
49686;PMS5003;36064;38.180;-122.272;2022-11-15T22:00:00;3.6;3.4;
49686;PMS5003;36064;38.180;-122.272;2022-11-15T22:05:01;4.21;4.21;
49686;PMS5003;36064;38.180;-122.272;2022-11-15T22:10:01;4.2;3.8;
49686;PMS5003;36064;38.180;-122.272;2022-11-15T22:15:00;5.4;4.8;
49686;PMS5003;36064;38.180;-122.272;2022-11-15T22:20:00;3.0;3.0;
49686;PMS5003;36064;38.180;-122.272;2022-11-15T22:25:00;7.6;5.6;
49686;PMS5003;36064;38.180;-122.272;2022-11-15T22:30:00;4.6;3.6;
49686;PMS5003;36064;38.180;-122.272;2022-11-15T22:35:07;6.2;5.0;
49686;PMS5003;36064;38.180;-122.272;2022-11-15T22:40:00;4.0;3.2;
49686;PMS5003;36064;38.180;-122.272;2022-11-15T22:45:00;3.6;3.0;
49686;PMS5003;36064;38.180;-122.272;2022-11-15T22:50:00;3.6;3.6;
49686;PMS5003;36064;38.180;-122.272;2022-11-15T22:55:00;3.19;2.2;
49686;PMS5003;36064;38.180;-122.272;2022-11-15T23:00:03;3.99;3.59;
49686;PMS5003;36064;38.180;-122.272;2022-11-15T23:05:00;3.2;2.8;
49686;PMS5003;36064;38.180;-122.272;2022-11-15T23:10:00;3.0;2.4;
49686;PMS5003;36064;38.180;-122.272;2022-11-15T23:15:00;2.4;2.4;
49686;PMS5003;36064;38.180;-122.272;2022-11-15T23:20:01;3.4;3.4;
49686;PMS5003;36064;38.180;-122.272;2022-11-15T23:25:00;3.6;2.2;
49686;PMS5003;36064;38.180;-122.272;2022-11-15T23:30:01;4.8;4.4;
49686;PMS5003;36064;38.180;-122.272;2022-11-15T23:35:01;3.8;3.0;
49686;PMS5003;36064;38.180;-122.272;2022-11-15T23:40:00;3.19;3.0;
49686;PMS5003;36064;38.180;-122.272;2022-11-15T23:45:00;3.6;3.0;
49686;PMS5003;36064;38.180;-122.272;2022-11-15T23:50:00;3.6;3.0;
49686;PMS5003;36064;38.180;-122.272;2022-11-15T23:55:00;4.4;4.0;
